createdAt,value
2018-12-25T00:01:40.938Z,7.00
2018-12-25T00:04:11.214Z,6.23
2018-12-25T00:06:41.417Z,6.43
2018-12-25T00:09:11.624Z,6.37
2018-12-25T00:11:41.831Z,9.03
2018-12-25T00:14:12.014Z,7.37
2018-12-25T00:16:42.261Z,7.23
2018-12-25T00:19:12.457Z,7.97
2018-12-25T00:21:42.682Z,6.55
2018-12-25T00:24:12.874Z,6.75
2018-12-25T00:26:43.209Z,6.30
2018-12-25T00:29:13.425Z,6.80
2018-12-25T00:31:43.635Z,7.00
2018-12-25T00:34:14.146Z,6.60
2018-12-25T00:39:13.844Z,6.10
2018-12-25T00:41:44.062Z,6.90
2018-12-25T00:44:14.257Z,6.47
2018-12-25T00:46:44.645Z,7.05
2018-12-25T00:49:15.176Z,6.97
2018-12-25T00:51:45.588Z,6.30
2018-12-25T00:59:14.687Z,6.83
2018-12-25T01:01:44.917Z,7.60
2018-12-25T01:06:44.523Z,7.70
2018-12-25T01:11:44.279Z,7.00
2018-12-25T01:19:23.050Z,7.60
2018-12-25T01:24:16.384Z,8.95
2018-12-25T01:26:46.636Z,7.70
2018-12-25T01:29:16.823Z,7.50
2018-12-25T01:31:47.024Z,7.50
2018-12-25T01:34:17.230Z,7.13
2018-12-25T01:36:47.437Z,7.00
2018-12-25T01:39:17.693Z,8.50
2018-12-25T01:41:47.919Z,7.95
2018-12-25T01:44:18.100Z,7.60
2018-12-25T01:49:17.011Z,7.40
2018-12-25T01:51:47.080Z,7.25
2018-12-25T01:54:17.302Z,7.80
2018-12-25T01:56:47.509Z,7.25
2018-12-25T01:59:17.705Z,7.90
2018-12-25T02:01:47.932Z,8.10
2018-12-25T02:04:18.159Z,6.60
2018-12-25T02:06:48.344Z,7.40
2018-12-25T02:09:18.546Z,7.20
2018-12-25T02:11:48.753Z,6.75
2018-12-25T02:14:18.983Z,7.65
2018-12-25T02:16:49.183Z,6.67
2018-12-25T02:19:19.383Z,7.43
2018-12-25T02:21:49.588Z,8.60
2018-12-25T02:24:19.787Z,7.33
2018-12-25T02:26:50.001Z,7.60
2018-12-25T02:29:20.220Z,7.90
2018-12-25T02:31:50.427Z,7.70
2018-12-25T02:34:20.640Z,8.27
2018-12-25T02:36:50.851Z,7.47
2018-12-25T02:39:21.057Z,8.20
2018-12-25T02:41:51.293Z,7.63
2018-12-25T02:44:21.517Z,8.13
2018-12-25T02:46:51.733Z,7.25
2018-12-25T02:49:21.920Z,8.03
2018-12-25T02:51:52.157Z,8.43
2018-12-25T02:54:22.370Z,7.50
2018-12-25T02:56:52.594Z,8.10
2018-12-25T02:59:22.775Z,7.60
2018-12-25T03:01:53.039Z,8.30
2018-12-25T03:04:23.301Z,8.35
2018-12-25T03:06:53.564Z,9.17
2018-12-25T03:09:23.745Z,7.90
2018-12-25T03:11:54.007Z,8.10
2018-12-25T03:14:24.226Z,8.03
2018-12-25T03:16:54.476Z,8.67
2018-12-25T03:19:24.415Z,7.80
2018-12-25T03:21:54.523Z,7.35
2018-12-25T03:24:24.732Z,9.20
2018-12-25T03:26:54.974Z,8.30
2018-12-25T03:29:25.192Z,7.83
2018-12-25T03:31:55.400Z,7.87
2018-12-25T03:34:25.651Z,8.60
2018-12-25T03:36:55.890Z,7.55
2018-12-25T03:39:26.104Z,7.65
2018-12-25T03:41:56.506Z,8.00
2018-12-25T03:44:26.722Z,7.90
2018-12-25T03:46:56.969Z,7.85
2018-12-25T03:49:27.182Z,7.87
2018-12-25T03:51:57.519Z,6.97
2018-12-25T03:54:27.722Z,7.50
2018-12-25T03:56:57.971Z,6.83
2018-12-25T03:59:28.173Z,7.90
2018-12-25T04:01:58.480Z,8.00
2018-12-25T04:04:28.688Z,7.50
2018-12-25T04:06:58.906Z,7.00
2018-12-25T04:09:29.121Z,7.80
2018-12-25T04:11:59.361Z,5.93
2018-12-25T04:14:29.569Z,6.60
2018-12-25T04:16:59.799Z,6.50
2018-12-25T04:19:30.003Z,6.80
2018-12-25T04:22:00.237Z,6.30
2018-12-25T04:24:30.446Z,6.47
2018-12-25T04:27:00.671Z,7.47
2018-12-25T04:29:30.968Z,6.40
2018-12-25T04:32:01.196Z,6.75
2018-12-25T04:34:31.427Z,6.70
2018-12-25T04:37:01.647Z,7.00
2018-12-25T04:39:31.913Z,6.33
2018-12-25T04:42:02.174Z,8.70
2018-12-25T04:44:32.120Z,7.80
2018-12-25T04:47:02.219Z,6.70
2018-12-25T04:49:32.438Z,7.25
2018-12-25T04:52:02.675Z,8.00
2018-12-25T04:54:32.934Z,7.50
2018-12-25T04:57:03.118Z,7.80
2018-12-25T04:59:33.316Z,7.00
2018-12-25T05:02:03.559Z,6.65
2018-12-25T05:04:33.798Z,7.33
2018-12-25T05:07:04.038Z,7.50
2018-12-25T05:09:34.252Z,6.77
2018-12-25T05:12:04.501Z,6.85
2018-12-25T05:14:34.702Z,6.80
2018-12-25T05:17:04.946Z,7.65
2018-12-25T05:19:35.153Z,7.60
2018-12-25T05:22:05.386Z,7.63
2018-12-25T05:24:35.614Z,6.97
2018-12-25T05:27:05.840Z,7.00
2018-12-25T05:29:36.048Z,7.07
2018-12-25T05:32:06.302Z,7.73
2018-12-25T05:34:36.533Z,8.07
2018-12-25T05:37:06.746Z,6.97
2018-12-25T05:39:36.936Z,7.70
2018-12-25T05:42:07.141Z,7.17
2018-12-25T05:44:37.369Z,8.33
2018-12-25T05:47:07.610Z,8.43
2018-12-25T05:49:37.801Z,7.17
2018-12-25T05:52:08.045Z,6.73
2018-12-25T05:54:38.248Z,7.10
2018-12-25T05:57:08.470Z,7.30
2018-12-25T06:02:08.038Z,7.50
2018-12-25T06:04:38.226Z,7.47
2018-12-25T06:07:08.485Z,7.47
2018-12-25T06:09:38.681Z,8.15
2018-12-25T06:12:08.909Z,7.67
2018-12-25T06:14:39.092Z,7.63
2018-12-25T06:17:09.337Z,7.65
2018-12-25T06:19:39.545Z,7.03
2018-12-25T06:22:09.755Z,7.30
2018-12-25T06:24:39.964Z,6.30
2018-12-25T06:27:10.183Z,6.70
2018-12-25T06:29:40.387Z,7.20
2018-12-25T06:32:10.665Z,6.87
2018-12-25T06:34:40.662Z,6.75
2018-12-25T06:37:10.509Z,7.20
2018-12-25T06:39:40.569Z,7.20
2018-12-25T06:42:10.791Z,6.87
2018-12-25T06:44:40.993Z,6.40
2018-12-25T06:47:11.278Z,6.90
2018-12-25T06:49:41.450Z,5.93
2018-12-25T06:52:11.687Z,6.77
2018-12-25T06:54:41.930Z,6.07
2018-12-25T06:57:12.163Z,6.70
2018-12-25T06:59:42.379Z,6.90
2018-12-25T07:02:12.605Z,6.53
2018-12-25T07:04:42.837Z,5.50
2018-12-25T07:07:13.061Z,5.93
2018-12-25T07:09:43.300Z,5.60
2018-12-25T07:12:13.533Z,5.97
2018-12-25T07:14:43.725Z,5.70
2018-12-25T07:17:13.947Z,5.73
2018-12-25T07:19:44.146Z,5.23
2018-12-25T07:22:14.360Z,6.93
2018-12-25T07:24:44.572Z,6.47
2018-12-25T07:27:14.794Z,6.60
2018-12-25T07:29:45.038Z,6.50
2018-12-25T07:32:15.270Z,6.20
2018-12-25T07:34:45.520Z,7.15
2018-12-25T07:37:15.731Z,6.50
2018-12-25T07:39:45.945Z,6.20
2018-12-25T07:42:16.171Z,6.10
2018-12-25T07:44:46.449Z,5.45
2018-12-25T07:47:16.709Z,5.75
2018-12-25T07:49:46.934Z,6.83
2018-12-25T07:52:16.919Z,5.90
2018-12-25T07:54:46.704Z,6.17
2018-12-25T07:57:16.775Z,6.10
2018-12-25T07:59:46.986Z,5.80
2018-12-25T08:02:17.250Z,6.30
2018-12-25T08:04:47.453Z,5.60
2018-12-25T08:07:17.691Z,5.80
2018-12-25T08:09:47.937Z,5.40
2018-12-25T08:12:18.155Z,5.47
2018-12-25T08:14:48.114Z,6.17
2018-12-25T08:17:18.201Z,6.00
2018-12-25T08:19:48.407Z,4.35
2018-12-25T08:22:18.656Z,5.55
2018-12-25T08:24:48.884Z,6.57
2018-12-25T08:27:19.160Z,6.17
2018-12-25T08:29:49.370Z,5.57
2018-12-25T08:32:19.599Z,5.87
2018-12-25T08:34:49.815Z,5.73
2018-12-25T08:37:20.054Z,5.95
2018-12-25T08:39:50.291Z,5.00
2018-12-25T08:42:20.581Z,5.33
2018-12-25T08:44:50.571Z,4.90
2018-12-25T08:47:20.782Z,5.40
2018-12-25T08:49:51.058Z,6.20
2018-12-25T08:52:21.600Z,5.63
2018-12-25T08:54:52.933Z,5.65
2018-12-25T08:57:22.768Z,5.50
2018-12-25T08:59:52.937Z,5.50
2018-12-25T09:02:23.173Z,6.10
2018-12-25T09:04:53.360Z,5.90
2018-12-25T09:07:23.609Z,5.90
2018-12-25T09:09:53.829Z,5.30
2018-12-25T09:12:24.060Z,5.60
2018-12-25T09:14:54.273Z,6.20
2018-12-25T09:17:24.511Z,4.93
2018-12-25T09:19:54.765Z,5.10
2018-12-25T09:22:25.025Z,5.30
2018-12-25T09:24:55.247Z,5.00
2018-12-25T09:27:25.473Z,6.30
2018-12-25T09:29:55.696Z,5.73
2018-12-25T09:32:25.942Z,5.50
2018-12-25T09:34:55.907Z,6.00
2018-12-25T09:37:26.034Z,6.73
2018-12-25T09:39:56.324Z,5.90
2018-12-25T09:42:26.307Z,7.17
2018-12-25T09:44:56.384Z,5.80
2018-12-25T09:47:26.633Z,6.20
2018-12-25T09:49:56.901Z,5.65
2018-12-25T09:52:27.149Z,6.70
2018-12-25T09:54:57.385Z,6.60
2018-12-25T09:57:27.601Z,7.93
2018-12-25T09:59:57.811Z,5.97
2018-12-25T10:02:28.017Z,5.23
2018-12-25T10:04:58.216Z,6.43
2018-12-25T10:07:28.449Z,6.60
2018-12-25T10:09:58.650Z,5.55
2018-12-25T10:12:28.878Z,5.55
2018-12-25T10:14:59.085Z,4.95
2018-12-25T10:17:29.298Z,5.00
2018-12-25T10:19:59.675Z,6.40
2018-12-25T10:22:29.891Z,7.37
2018-12-25T10:25:00.161Z,6.00
2018-12-25T10:39:57.139Z,5.60
2018-12-25T10:44:56.789Z,6.50
2018-12-25T10:49:56.366Z,5.30
2018-12-25T10:54:55.291Z,5.00
2018-12-25T10:57:25.515Z,5.80
2018-12-25T11:09:53.299Z,7.10
2018-12-25T11:32:18.700Z,6.60
2018-12-25T11:34:48.909Z,5.80
2018-12-25T11:37:19.127Z,5.40
2018-12-25T11:39:49.741Z,5.70
2018-12-25T11:42:20.054Z,5.70
2018-12-25T11:47:19.644Z,5.80
2018-12-25T11:54:48.659Z,4.60
2018-12-25T11:57:18.871Z,5.50
2018-12-25T11:59:49.176Z,5.20
2018-12-25T21:29:03.694Z,7.85
2018-12-25T22:06:39.071Z,7.70
2018-12-25T22:31:35.310Z,7.80
2018-12-25T22:34:05.540Z,7.70
2018-12-25T22:36:35.698Z,7.80
2018-12-25T23:38:53.266Z,7.70
